sensor_id;sensor_type;location;lat;lon;timestamp;P1;durP1;ratioP1;P2;durP2;ratioP2
20743;SDS011;56303;52.160;-0.428;2023-03-11T00:00:30;12.20;;;7.40;;
20743;SDS011;56303;52.160;-0.428;2023-03-11T00:02:59;10.73;;;6.67;;
20743;SDS011;56303;52.160;-0.428;2023-03-11T00:05:29;9.63;;;6.60;;
20743;SDS011;56303;52.160;-0.428;2023-03-11T00:07:57;8.93;;;6.30;;
20743;SDS011;56303;52.160;-0.428;2023-03-11T00:10:27;9.90;;;6.23;;
20743;SDS011;56303;52.160;-0.428;2023-03-11T00:12:59;10.87;;;6.90;;
20743;SDS011;56303;52.160;-0.428;2023-03-11T00:15:27;10.43;;;6.57;;
20743;SDS011;56303;52.160;-0.428;2023-03-11T00:17:55;11.27;;;6.73;;
20743;SDS011;56303;52.160;-0.428;2023-03-11T00:20:30;11.70;;;7.17;;
20743;SDS011;56303;52.160;-0.428;2023-03-11T00:23:02;10.00;;;6.80;;
20743;SDS011;56303;52.160;-0.428;2023-03-11T00:25:30;9.83;;;8.87;;
20743;SDS011;56303;52.160;-0.428;2023-03-11T00:27:58;11.80;;;7.67;;
20743;SDS011;56303;52.160;-0.428;2023-03-11T00:30:25;11.70;;;8.77;;
20743;SDS011;56303;52.160;-0.428;2023-03-11T00:32:53;10.47;;;7.30;;
20743;SDS011;56303;52.160;-0.428;2023-03-11T00:35:23;8.53;;;6.37;;
20743;SDS011;56303;52.160;-0.428;2023-03-11T00:37:53;9.67;;;6.80;;
20743;SDS011;56303;52.160;-0.428;2023-03-11T00:40:22;10.37;;;7.03;;
20743;SDS011;56303;52.160;-0.428;2023-03-11T00:42:51;9.10;;;7.37;;
20743;SDS011;56303;52.160;-0.428;2023-03-11T00:45:18;10.53;;;7.33;;
20743;SDS011;56303;52.160;-0.428;2023-03-11T00:47:45;11.73;;;7.97;;
20743;SDS011;56303;52.160;-0.428;2023-03-11T00:50:16;12.20;;;8.10;;
20743;SDS011;56303;52.160;-0.428;2023-03-11T00:52:45;9.97;;;8.33;;
20743;SDS011;56303;52.160;-0.428;2023-03-11T00:55:14;13.00;;;8.00;;
20743;SDS011;56303;52.160;-0.428;2023-03-11T00:57:43;13.13;;;9.30;;
20743;SDS011;56303;52.160;-0.428;2023-03-11T01:00:14;12.00;;;8.17;;
20743;SDS011;56303;52.160;-0.428;2023-03-11T01:02:42;13.30;;;8.70;;
20743;SDS011;56303;52.160;-0.428;2023-03-11T01:05:09;10.60;;;8.37;;
20743;SDS011;56303;52.160;-0.428;2023-03-11T01:07:36;12.90;;;8.40;;
20743;SDS011;56303;52.160;-0.428;2023-03-11T01:10:04;12.03;;;8.13;;
20743;SDS011;56303;52.160;-0.428;2023-03-11T01:12:32;11.90;;;8.30;;
20743;SDS011;56303;52.160;-0.428;2023-03-11T01:14:59;12.07;;;8.03;;
20743;SDS011;56303;52.160;-0.428;2023-03-11T01:17:26;12.27;;;8.53;;
20743;SDS011;56303;52.160;-0.428;2023-03-11T01:19:53;10.60;;;8.57;;
20743;SDS011;56303;52.160;-0.428;2023-03-11T01:22:20;13.97;;;9.10;;
20743;SDS011;56303;52.160;-0.428;2023-03-11T01:24:48;13.17;;;8.87;;
20743;SDS011;56303;52.160;-0.428;2023-03-11T01:27:14;16.13;;;9.73;;
20743;SDS011;56303;52.160;-0.428;2023-03-11T01:29:41;13.30;;;8.60;;
20743;SDS011;56303;52.160;-0.428;2023-03-11T01:32:08;12.40;;;8.73;;
20743;SDS011;56303;52.160;-0.428;2023-03-11T01:34:36;14.50;;;8.90;;
20743;SDS011;56303;52.160;-0.428;2023-03-11T01:37:03;11.33;;;8.67;;
20743;SDS011;56303;52.160;-0.428;2023-03-11T01:39:30;10.97;;;8.20;;
20743;SDS011;56303;52.160;-0.428;2023-03-11T01:41:56;13.47;;;8.67;;
20743;SDS011;56303;52.160;-0.428;2023-03-11T01:44:23;11.10;;;8.43;;
20743;SDS011;56303;52.160;-0.428;2023-03-11T01:49:17;11.93;;;8.90;;
20743;SDS011;56303;52.160;-0.428;2023-03-11T01:51:52;13.90;;;9.17;;
20743;SDS011;56303;52.160;-0.428;2023-03-11T01:54:26;12.63;;;8.37;;
20743;SDS011;56303;52.160;-0.428;2023-03-11T01:56:55;10.90;;;7.90;;
20743;SDS011;56303;52.160;-0.428;2023-03-11T01:59:28;11.00;;;9.10;;
20743;SDS011;56303;52.160;-0.428;2023-03-11T02:04:48;13.73;;;8.83;;
20743;SDS011;56303;52.160;-0.428;2023-03-11T02:07:16;12.07;;;8.83;;
20743;SDS011;56303;52.160;-0.428;2023-03-11T02:09:43;12.13;;;8.40;;
20743;SDS011;56303;52.160;-0.428;2023-03-11T02:12:10;11.97;;;8.37;;
20743;SDS011;56303;52.160;-0.428;2023-03-11T02:14:41;10.40;;;7.83;;
20743;SDS011;56303;52.160;-0.428;2023-03-11T02:17:11;12.03;;;8.83;;
20743;SDS011;56303;52.160;-0.428;2023-03-11T02:19:49;11.97;;;8.97;;
20743;SDS011;56303;52.160;-0.428;2023-03-11T02:22:30;11.60;;;7.63;;
20743;SDS011;56303;52.160;-0.428;2023-03-11T02:27:53;11.23;;;8.33;;
20743;SDS011;56303;52.160;-0.428;2023-03-11T02:30:21;17.23;;;9.40;;
20743;SDS011;56303;52.160;-0.428;2023-03-11T02:32:50;11.07;;;7.50;;
20743;SDS011;56303;52.160;-0.428;2023-03-11T02:35:18;8.63;;;7.30;;
20743;SDS011;56303;52.160;-0.428;2023-03-11T02:37:46;10.70;;;7.70;;
20743;SDS011;56303;52.160;-0.428;2023-03-11T02:42:52;11.07;;;7.73;;
20743;SDS011;56303;52.160;-0.428;2023-03-11T02:45:22;12.07;;;8.63;;
20743;SDS011;56303;52.160;-0.428;2023-03-11T02:47:51;11.43;;;8.33;;
20743;SDS011;56303;52.160;-0.428;2023-03-11T02:50:19;11.77;;;7.93;;
20743;SDS011;56303;52.160;-0.428;2023-03-11T02:52:48;12.57;;;8.77;;
20743;SDS011;56303;52.160;-0.428;2023-03-11T02:55:15;11.20;;;8.23;;
20743;SDS011;56303;52.160;-0.428;2023-03-11T02:57:43;11.20;;;7.43;;
20743;SDS011;56303;52.160;-0.428;2023-03-11T03:00:10;9.80;;;7.50;;
20743;SDS011;56303;52.160;-0.428;2023-03-11T03:02:40;10.27;;;7.90;;
20743;SDS011;56303;52.160;-0.428;2023-03-11T03:05:08;12.23;;;8.20;;
20743;SDS011;56303;52.160;-0.428;2023-03-11T03:07:35;13.23;;;8.73;;
20743;SDS011;56303;52.160;-0.428;2023-03-11T03:10:03;12.73;;;7.83;;
20743;SDS011;56303;52.160;-0.428;2023-03-11T03:12:31;11.00;;;7.50;;
20743;SDS011;56303;52.160;-0.428;2023-03-11T03:14:58;12.80;;;8.90;;
20743;SDS011;56303;52.160;-0.428;2023-03-11T03:17:24;11.30;;;8.50;;
20743;SDS011;56303;52.160;-0.428;2023-03-11T03:19:51;13.90;;;9.60;;
20743;SDS011;56303;52.160;-0.428;2023-03-11T03:22:18;11.70;;;8.40;;
20743;SDS011;56303;52.160;-0.428;2023-03-11T03:24:45;15.13;;;8.77;;
20743;SDS011;56303;52.160;-0.428;2023-03-11T03:27:12;12.17;;;8.97;;
20743;SDS011;56303;52.160;-0.428;2023-03-11T03:29:39;13.30;;;8.57;;
20743;SDS011;56303;52.160;-0.428;2023-03-11T03:32:06;13.23;;;9.40;;
20743;SDS011;56303;52.160;-0.428;2023-03-11T03:34:33;12.57;;;9.07;;
20743;SDS011;56303;52.160;-0.428;2023-03-11T03:37:00;9.97;;;7.37;;
20743;SDS011;56303;52.160;-0.428;2023-03-11T03:39:26;13.30;;;9.73;;
20743;SDS011;56303;52.160;-0.428;2023-03-11T03:41:55;11.63;;;8.60;;
20743;SDS011;56303;52.160;-0.428;2023-03-11T03:44:22;11.20;;;8.30;;
20743;SDS011;56303;52.160;-0.428;2023-03-11T03:46:49;12.83;;;8.77;;
20743;SDS011;56303;52.160;-0.428;2023-03-11T03:49:16;12.80;;;9.23;;
20743;SDS011;56303;52.160;-0.428;2023-03-11T03:51:43;11.10;;;8.77;;
20743;SDS011;56303;52.160;-0.428;2023-03-11T03:54:09;11.87;;;8.47;;
20743;SDS011;56303;52.160;-0.428;2023-03-11T03:56:36;13.77;;;8.60;;
20743;SDS011;56303;52.160;-0.428;2023-03-11T03:59:03;12.17;;;8.87;;
20743;SDS011;56303;52.160;-0.428;2023-03-11T04:01:30;11.90;;;9.00;;
20743;SDS011;56303;52.160;-0.428;2023-03-11T04:03:57;10.50;;;8.40;;
20743;SDS011;56303;52.160;-0.428;2023-03-11T04:06:24;13.63;;;8.53;;
20743;SDS011;56303;52.160;-0.428;2023-03-11T04:08:52;13.57;;;8.70;;
20743;SDS011;56303;52.160;-0.428;2023-03-11T04:11:20;11.63;;;8.93;;
20743;SDS011;56303;52.160;-0.428;2023-03-11T04:13:47;12.10;;;8.37;;
20743;SDS011;56303;52.160;-0.428;2023-03-11T04:16:19;12.63;;;9.47;;
20743;SDS011;56303;52.160;-0.428;2023-03-11T04:18:47;12.43;;;8.10;;
20743;SDS011;56303;52.160;-0.428;2023-03-11T04:21:14;12.93;;;9.30;;
20743;SDS011;56303;52.160;-0.428;2023-03-11T04:23:41;13.40;;;8.47;;
20743;SDS011;56303;52.160;-0.428;2023-03-11T04:26:08;13.90;;;8.70;;
20743;SDS011;56303;52.160;-0.428;2023-03-11T04:28:34;11.47;;;7.60;;
20743;SDS011;56303;52.160;-0.428;2023-03-11T04:31:01;11.53;;;8.10;;
20743;SDS011;56303;52.160;-0.428;2023-03-11T04:33:28;11.17;;;7.37;;
20743;SDS011;56303;52.160;-0.428;2023-03-11T04:35:55;11.03;;;8.23;;
20743;SDS011;56303;52.160;-0.428;2023-03-11T04:38:23;12.03;;;7.90;;
20743;SDS011;56303;52.160;-0.428;2023-03-11T04:40:50;12.47;;;7.93;;
20743;SDS011;56303;52.160;-0.428;2023-03-11T04:43:16;12.20;;;7.67;;
20743;SDS011;56303;52.160;-0.428;2023-03-11T04:45:43;9.77;;;7.70;;
20743;SDS011;56303;52.160;-0.428;2023-03-11T04:48:10;11.03;;;7.83;;
20743;SDS011;56303;52.160;-0.428;2023-03-11T04:50:37;14.67;;;8.77;;
20743;SDS011;56303;52.160;-0.428;2023-03-11T04:53:03;13.70;;;8.03;;
20743;SDS011;56303;52.160;-0.428;2023-03-11T04:55:30;14.10;;;8.63;;
20743;SDS011;56303;52.160;-0.428;2023-03-11T04:57:58;12.07;;;7.80;;
20743;SDS011;56303;52.160;-0.428;2023-03-11T05:00:25;12.07;;;7.80;;
20743;SDS011;56303;52.160;-0.428;2023-03-11T05:02:52;10.27;;;8.47;;
20743;SDS011;56303;52.160;-0.428;2023-03-11T05:05:18;11.83;;;7.87;;
20743;SDS011;56303;52.160;-0.428;2023-03-11T05:07:46;13.77;;;8.67;;
20743;SDS011;56303;52.160;-0.428;2023-03-11T05:10:13;10.30;;;7.83;;
20743;SDS011;56303;52.160;-0.428;2023-03-11T05:12:48;12.20;;;8.10;;
20743;SDS011;56303;52.160;-0.428;2023-03-11T05:15:15;13.97;;;7.90;;
20743;SDS011;56303;52.160;-0.428;2023-03-11T05:17:42;9.20;;;6.97;;
20743;SDS011;56303;52.160;-0.428;2023-03-11T05:20:10;11.17;;;8.17;;
20743;SDS011;56303;52.160;-0.428;2023-03-11T05:22:37;11.27;;;7.77;;
20743;SDS011;56303;52.160;-0.428;2023-03-11T05:25:04;12.70;;;8.03;;
20743;SDS011;56303;52.160;-0.428;2023-03-11T05:27:32;10.97;;;7.70;;
20743;SDS011;56303;52.160;-0.428;2023-03-11T05:29:59;12.70;;;8.60;;
20743;SDS011;56303;52.160;-0.428;2023-03-11T05:32:25;9.63;;;7.40;;
20743;SDS011;56303;52.160;-0.428;2023-03-11T05:34:52;12.13;;;7.60;;
20743;SDS011;56303;52.160;-0.428;2023-03-11T05:37:19;10.67;;;8.20;;
20743;SDS011;56303;52.160;-0.428;2023-03-11T05:39:46;12.83;;;8.33;;
20743;SDS011;56303;52.160;-0.428;2023-03-11T05:42:12;8.47;;;6.97;;
20743;SDS011;56303;52.160;-0.428;2023-03-11T05:44:39;10.87;;;7.67;;
20743;SDS011;56303;52.160;-0.428;2023-03-11T05:47:07;10.43;;;7.13;;
20743;SDS011;56303;52.160;-0.428;2023-03-11T05:49:33;13.83;;;8.90;;
20743;SDS011;56303;52.160;-0.428;2023-03-11T05:52:00;10.27;;;7.00;;
20743;SDS011;56303;52.160;-0.428;2023-03-11T05:54:27;12.00;;;7.70;;
20743;SDS011;56303;52.160;-0.428;2023-03-11T05:56:54;9.43;;;8.40;;
20743;SDS011;56303;52.160;-0.428;2023-03-11T05:59:21;8.83;;;6.93;;
20743;SDS011;56303;52.160;-0.428;2023-03-11T06:01:48;10.40;;;7.97;;
20743;SDS011;56303;52.160;-0.428;2023-03-11T06:04:15;12.37;;;8.73;;
20743;SDS011;56303;52.160;-0.428;2023-03-11T06:06:42;10.93;;;8.20;;
20743;SDS011;56303;52.160;-0.428;2023-03-11T06:09:12;10.37;;;8.00;;
20743;SDS011;56303;52.160;-0.428;2023-03-11T06:11:39;10.17;;;8.10;;
20743;SDS011;56303;52.160;-0.428;2023-03-11T06:14:09;12.50;;;7.63;;
20743;SDS011;56303;52.160;-0.428;2023-03-11T06:16:38;12.30;;;8.13;;
20743;SDS011;56303;52.160;-0.428;2023-03-11T06:19:06;12.97;;;9.17;;
20743;SDS011;56303;52.160;-0.428;2023-03-11T06:21:32;12.57;;;8.27;;
20743;SDS011;56303;52.160;-0.428;2023-03-11T06:23:59;11.80;;;7.87;;
20743;SDS011;56303;52.160;-0.428;2023-03-11T06:26:26;10.03;;;7.20;;
20743;SDS011;56303;52.160;-0.428;2023-03-11T06:28:53;12.07;;;8.33;;
20743;SDS011;56303;52.160;-0.428;2023-03-11T06:31:21;10.87;;;7.10;;
20743;SDS011;56303;52.160;-0.428;2023-03-11T06:33:50;13.40;;;8.33;;
20743;SDS011;56303;52.160;-0.428;2023-03-11T06:36:18;10.93;;;6.97;;
20743;SDS011;56303;52.160;-0.428;2023-03-11T06:38:46;10.13;;;7.63;;
20743;SDS011;56303;52.160;-0.428;2023-03-11T06:41:14;10.53;;;7.27;;
20743;SDS011;56303;52.160;-0.428;2023-03-11T06:43:41;8.93;;;7.37;;
20743;SDS011;56303;52.160;-0.428;2023-03-11T06:46:09;10.33;;;7.53;;
20743;SDS011;56303;52.160;-0.428;2023-03-11T06:48:38;10.40;;;8.50;;
20743;SDS011;56303;52.160;-0.428;2023-03-11T06:51:05;12.23;;;8.30;;
20743;SDS011;56303;52.160;-0.428;2023-03-11T06:53:32;9.40;;;7.23;;
20743;SDS011;56303;52.160;-0.428;2023-03-11T06:56:20;10.83;;;7.27;;
20743;SDS011;56303;52.160;-0.428;2023-03-11T06:58:47;10.37;;;7.13;;
20743;SDS011;56303;52.160;-0.428;2023-03-11T07:01:19;11.47;;;6.83;;
20743;SDS011;56303;52.160;-0.428;2023-03-11T07:03:47;12.10;;;7.67;;
20743;SDS011;56303;52.160;-0.428;2023-03-11T07:06:16;12.63;;;8.83;;
20743;SDS011;56303;52.160;-0.428;2023-03-11T07:08:46;11.87;;;8.70;;
20743;SDS011;56303;52.160;-0.428;2023-03-11T07:11:15;11.53;;;7.67;;
20743;SDS011;56303;52.160;-0.428;2023-03-11T07:13:44;10.67;;;7.67;;
20743;SDS011;56303;52.160;-0.428;2023-03-11T07:16:12;11.10;;;8.43;;
20743;SDS011;56303;52.160;-0.428;2023-03-11T07:18:42;10.77;;;7.77;;
20743;SDS011;56303;52.160;-0.428;2023-03-11T07:21:10;13.20;;;9.50;;
20743;SDS011;56303;52.160;-0.428;2023-03-11T07:23:42;12.27;;;8.93;;
20743;SDS011;56303;52.160;-0.428;2023-03-11T07:26:10;14.47;;;9.67;;
20743;SDS011;56303;52.160;-0.428;2023-03-11T07:28:39;15.50;;;8.40;;
20743;SDS011;56303;52.160;-0.428;2023-03-11T07:31:11;13.73;;;10.10;;
20743;SDS011;56303;52.160;-0.428;2023-03-11T07:33:42;14.20;;;10.00;;
20743;SDS011;56303;52.160;-0.428;2023-03-11T07:36:10;12.90;;;9.40;;
20743;SDS011;56303;52.160;-0.428;2023-03-11T07:38:39;13.57;;;9.23;;
20743;SDS011;56303;52.160;-0.428;2023-03-11T07:41:07;11.93;;;9.20;;
20743;SDS011;56303;52.160;-0.428;2023-03-11T07:43:36;14.17;;;10.00;;
20743;SDS011;56303;52.160;-0.428;2023-03-11T07:46:08;11.90;;;9.83;;
20743;SDS011;56303;52.160;-0.428;2023-03-11T07:48:41;11.53;;;9.07;;
20743;SDS011;56303;52.160;-0.428;2023-03-11T07:51:09;12.50;;;8.50;;
20743;SDS011;56303;52.160;-0.428;2023-03-11T07:53:41;12.53;;;9.73;;
20743;SDS011;56303;52.160;-0.428;2023-03-11T07:56:09;15.50;;;10.17;;
20743;SDS011;56303;52.160;-0.428;2023-03-11T07:58:37;11.50;;;9.30;;
20743;SDS011;56303;52.160;-0.428;2023-03-11T08:01:05;13.53;;;10.10;;
20743;SDS011;56303;52.160;-0.428;2023-03-11T08:03:34;10.03;;;8.93;;
20743;SDS011;56303;52.160;-0.428;2023-03-11T08:06:01;14.87;;;10.47;;
20743;SDS011;56303;52.160;-0.428;2023-03-11T08:08:29;13.87;;;9.87;;
20743;SDS011;56303;52.160;-0.428;2023-03-11T08:10:56;13.03;;;10.87;;
20743;SDS011;56303;52.160;-0.428;2023-03-11T08:13:22;14.67;;;10.63;;
20743;SDS011;56303;52.160;-0.428;2023-03-11T08:15:49;13.80;;;10.63;;
20743;SDS011;56303;52.160;-0.428;2023-03-11T08:18:16;15.70;;;10.87;;
20743;SDS011;56303;52.160;-0.428;2023-03-11T08:20:43;15.27;;;11.63;;
20743;SDS011;56303;52.160;-0.428;2023-03-11T08:23:10;14.13;;;10.27;;
20743;SDS011;56303;52.160;-0.428;2023-03-11T08:25:38;15.60;;;9.87;;
20743;SDS011;56303;52.160;-0.428;2023-03-11T08:28:06;12.40;;;9.57;;
20743;SDS011;56303;52.160;-0.428;2023-03-11T08:30:34;17.97;;;11.33;;
20743;SDS011;56303;52.160;-0.428;2023-03-11T08:33:01;13.30;;;9.87;;
20743;SDS011;56303;52.160;-0.428;2023-03-11T08:35:28;12.87;;;9.63;;
20743;SDS011;56303;52.160;-0.428;2023-03-11T08:37:54;12.47;;;9.57;;
20743;SDS011;56303;52.160;-0.428;2023-03-11T08:40:21;14.80;;;8.83;;
20743;SDS011;56303;52.160;-0.428;2023-03-11T08:42:48;14.50;;;9.33;;
20743;SDS011;56303;52.160;-0.428;2023-03-11T08:45:15;14.47;;;8.10;;
20743;SDS011;56303;52.160;-0.428;2023-03-11T08:47:42;10.60;;;7.27;;
20743;SDS011;56303;52.160;-0.428;2023-03-11T08:50:13;9.10;;;7.60;;
20743;SDS011;56303;52.160;-0.428;2023-03-11T08:52:42;11.27;;;7.50;;
20743;SDS011;56303;52.160;-0.428;2023-03-11T08:55:13;12.00;;;6.87;;
20743;SDS011;56303;52.160;-0.428;2023-03-11T08:57:42;9.47;;;6.87;;
20743;SDS011;56303;52.160;-0.428;2023-03-11T09:00:11;8.87;;;6.47;;
20743;SDS011;56303;52.160;-0.428;2023-03-11T09:02:38;8.70;;;6.63;;
20743;SDS011;56303;52.160;-0.428;2023-03-11T09:05:06;9.93;;;5.83;;
20743;SDS011;56303;52.160;-0.428;2023-03-11T09:07:34;11.37;;;6.70;;
20743;SDS011;56303;52.160;-0.428;2023-03-11T09:10:01;9.23;;;6.70;;
20743;SDS011;56303;52.160;-0.428;2023-03-11T09:12:28;8.20;;;5.73;;
20743;SDS011;56303;52.160;-0.428;2023-03-11T09:14:55;11.53;;;6.40;;
20743;SDS011;56303;52.160;-0.428;2023-03-11T09:17:22;6.67;;;3.70;;
20743;SDS011;56303;52.160;-0.428;2023-03-11T09:19:49;6.87;;;3.37;;
20743;SDS011;56303;52.160;-0.428;2023-03-11T09:22:16;6.97;;;3.10;;
20743;SDS011;56303;52.160;-0.428;2023-03-11T09:24:43;9.17;;;3.60;;
20743;SDS011;56303;52.160;-0.428;2023-03-11T09:27:09;5.57;;;2.70;;
20743;SDS011;56303;52.160;-0.428;2023-03-11T09:29:38;5.20;;;2.70;;
20743;SDS011;56303;52.160;-0.428;2023-03-11T09:32:04;8.93;;;3.70;;
20743;SDS011;56303;52.160;-0.428;2023-03-11T09:34:31;6.60;;;2.93;;
20743;SDS011;56303;52.160;-0.428;2023-03-11T09:36:59;5.67;;;2.77;;
20743;SDS011;56303;52.160;-0.428;2023-03-11T09:39:26;7.77;;;2.63;;
20743;SDS011;56303;52.160;-0.428;2023-03-11T09:44:40;8.10;;;3.00;;
20743;SDS011;56303;52.160;-0.428;2023-03-11T09:47:20;7.17;;;3.43;;
20743;SDS011;56303;52.160;-0.428;2023-03-11T09:56:00;7.60;;;2.40;;
20743;SDS011;56303;52.160;-0.428;2023-03-11T09:58:34;5.47;;;2.20;;
20743;SDS011;56303;52.160;-0.428;2023-03-11T10:01:24;5.80;;;2.70;;
20743;SDS011;56303;52.160;-0.428;2023-03-11T10:03:55;7.13;;;2.57;;
20743;SDS011;56303;52.160;-0.428;2023-03-11T10:06:27;6.53;;;2.53;;
20743;SDS011;56303;52.160;-0.428;2023-03-11T10:20:53;5.80;;;2.50;;
20743;SDS011;56303;52.160;-0.428;2023-03-11T10:29:55;3.63;;;2.00;;
20743;SDS011;56303;52.160;-0.428;2023-03-11T10:32:24;4.53;;;1.90;;
20743;SDS011;56303;52.160;-0.428;2023-03-11T10:37:55;3.27;;;1.80;;
20743;SDS011;56303;52.160;-0.428;2023-03-11T10:40:43;4.00;;;1.87;;
20743;SDS011;56303;52.160;-0.428;2023-03-11T10:46:19;2.83;;;1.27;;
20743;SDS011;56303;52.160;-0.428;2023-03-11T10:48:50;2.93;;;1.40;;
20743;SDS011;56303;52.160;-0.428;2023-03-11T10:51:18;6.83;;;1.90;;
20743;SDS011;56303;52.160;-0.428;2023-03-11T10:53:50;2.27;;;1.10;;
20743;SDS011;56303;52.160;-0.428;2023-03-11T10:59:02;6.13;;;1.80;;
20743;SDS011;56303;52.160;-0.428;2023-03-11T11:01:30;2.97;;;1.30;;
20743;SDS011;56303;52.160;-0.428;2023-03-11T11:03:59;2.63;;;1.20;;
20743;SDS011;56303;52.160;-0.428;2023-03-11T11:06:27;2.33;;;1.27;;
20743;SDS011;56303;52.160;-0.428;2023-03-11T11:11:39;3.20;;;1.03;;
20743;SDS011;56303;52.160;-0.428;2023-03-11T11:14:06;3.57;;;1.03;;
20743;SDS011;56303;52.160;-0.428;2023-03-11T11:16:34;3.47;;;1.60;;
20743;SDS011;56303;52.160;-0.428;2023-03-11T11:21:32;3.43;;;1.20;;
20743;SDS011;56303;52.160;-0.428;2023-03-11T11:29:31;2.23;;;1.27;;
20743;SDS011;56303;52.160;-0.428;2023-03-11T11:32:09;3.43;;;1.30;;
20743;SDS011;56303;52.160;-0.428;2023-03-11T11:35:03;2.90;;;1.33;;
20743;SDS011;56303;52.160;-0.428;2023-03-11T11:37:58;4.43;;;1.83;;
20743;SDS011;56303;52.160;-0.428;2023-03-11T11:40:28;2.07;;;1.00;;
20743;SDS011;56303;52.160;-0.428;2023-03-11T11:43:04;2.60;;;1.63;;
20743;SDS011;56303;52.160;-0.428;2023-03-11T11:45:39;3.10;;;1.27;;
20743;SDS011;56303;52.160;-0.428;2023-03-11T11:48:13;4.30;;;1.40;;
20743;SDS011;56303;52.160;-0.428;2023-03-11T11:50:59;3.67;;;1.30;;
20743;SDS011;56303;52.160;-0.428;2023-03-11T11:56:08;4.10;;;1.73;;
20743;SDS011;56303;52.160;-0.428;2023-03-11T11:58:35;2.53;;;1.40;;
20743;SDS011;56303;52.160;-0.428;2023-03-11T12:03:35;2.30;;;1.50;;
20743;SDS011;56303;52.160;-0.428;2023-03-11T12:06:14;5.60;;;1.47;;
20743;SDS011;56303;52.160;-0.428;2023-03-11T12:09:10;3.77;;;1.67;;
20743;SDS011;56303;52.160;-0.428;2023-03-11T12:14:23;2.87;;;1.40;;
20743;SDS011;56303;52.160;-0.428;2023-03-11T12:17:15;6.23;;;2.37;;
20743;SDS011;56303;52.160;-0.428;2023-03-11T12:30:32;3.00;;;1.70;;
20743;SDS011;56303;52.160;-0.428;2023-03-11T12:33:04;3.90;;;1.80;;
20743;SDS011;56303;52.160;-0.428;2023-03-11T12:35:36;6.23;;;1.97;;
20743;SDS011;56303;52.160;-0.428;2023-03-11T12:46:10;4.73;;;2.73;;
20743;SDS011;56303;52.160;-0.428;2023-03-11T12:48:44;4.97;;;2.57;;
20743;SDS011;56303;52.160;-0.428;2023-03-11T12:54:45;7.67;;;2.73;;
20743;SDS011;56303;52.160;-0.428;2023-03-11T13:05:21;4.37;;;2.30;;
20743;SDS011;56303;52.160;-0.428;2023-03-11T13:10:45;4.03;;;2.70;;
20743;SDS011;56303;52.160;-0.428;2023-03-11T13:18:41;3.43;;;2.23;;
20743;SDS011;56303;52.160;-0.428;2023-03-11T13:27:06;4.50;;;2.73;;
20743;SDS011;56303;52.160;-0.428;2023-03-11T13:30:07;7.60;;;2.73;;
20743;SDS011;56303;52.160;-0.428;2023-03-11T13:33:06;5.90;;;2.70;;
20743;SDS011;56303;52.160;-0.428;2023-03-11T13:35:59;4.43;;;2.50;;
20743;SDS011;56303;52.160;-0.428;2023-03-11T13:41:55;4.87;;;1.97;;
20743;SDS011;56303;52.160;-0.428;2023-03-11T13:44:27;4.23;;;2.13;;
20743;SDS011;56303;52.160;-0.428;2023-03-11T13:47:15;3.73;;;2.07;;
20743;SDS011;56303;52.160;-0.428;2023-03-11T13:49:44;5.00;;;2.10;;
20743;SDS011;56303;52.160;-0.428;2023-03-11T13:52:31;3.97;;;1.90;;
20743;SDS011;56303;52.160;-0.428;2023-03-11T13:57:51;3.00;;;1.90;;
20743;SDS011;56303;52.160;-0.428;2023-03-11T14:00:26;3.73;;;2.23;;
20743;SDS011;56303;52.160;-0.428;2023-03-11T14:02:55;3.83;;;2.23;;
20743;SDS011;56303;52.160;-0.428;2023-03-11T14:07:56;3.73;;;2.40;;
20743;SDS011;56303;52.160;-0.428;2023-03-11T14:10:38;5.07;;;2.37;;
20743;SDS011;56303;52.160;-0.428;2023-03-11T14:13:15;6.50;;;2.40;;
20743;SDS011;56303;52.160;-0.428;2023-03-11T14:15:50;4.87;;;2.77;;
20743;SDS011;56303;52.160;-0.428;2023-03-11T14:18:26;5.77;;;2.80;;
20743;SDS011;56303;52.160;-0.428;2023-03-11T14:20:53;7.60;;;3.47;;
20743;SDS011;56303;52.160;-0.428;2023-03-11T14:23:21;6.67;;;2.73;;
20743;SDS011;56303;52.160;-0.428;2023-03-11T14:26:00;6.63;;;2.37;;
20743;SDS011;56303;52.160;-0.428;2023-03-11T14:28:33;8.27;;;2.87;;
20743;SDS011;56303;52.160;-0.428;2023-03-11T14:31:02;7.00;;;3.17;;
20743;SDS011;56303;52.160;-0.428;2023-03-11T14:33:30;5.80;;;2.80;;
20743;SDS011;56303;52.160;-0.428;2023-03-11T14:35:58;5.50;;;2.70;;
20743;SDS011;56303;52.160;-0.428;2023-03-11T14:38:29;7.73;;;3.07;;
20743;SDS011;56303;52.160;-0.428;2023-03-11T14:41:04;5.10;;;2.90;;
20743;SDS011;56303;52.160;-0.428;2023-03-11T14:43:32;4.60;;;3.10;;
20743;SDS011;56303;52.160;-0.428;2023-03-11T14:46:02;4.40;;;2.60;;
20743;SDS011;56303;52.160;-0.428;2023-03-11T14:48:40;6.53;;;2.53;;
20743;SDS011;56303;52.160;-0.428;2023-03-11T14:51:17;7.83;;;2.50;;
20743;SDS011;56303;52.160;-0.428;2023-03-11T14:53:55;3.90;;;2.27;;
20743;SDS011;56303;52.160;-0.428;2023-03-11T14:56:43;4.63;;;1.90;;
20743;SDS011;56303;52.160;-0.428;2023-03-11T14:59:20;7.87;;;3.77;;
20743;SDS011;56303;52.160;-0.428;2023-03-11T15:01:52;3.37;;;2.10;;
20743;SDS011;56303;52.160;-0.428;2023-03-11T15:06:58;7.50;;;2.40;;
20743;SDS011;56303;52.160;-0.428;2023-03-11T15:09:26;3.10;;;2.10;;
20743;SDS011;56303;52.160;-0.428;2023-03-11T15:11:55;5.73;;;2.50;;
20743;SDS011;56303;52.160;-0.428;2023-03-11T15:14:28;4.43;;;2.10;;
20743;SDS011;56303;52.160;-0.428;2023-03-11T15:17:17;4.37;;;2.20;;
20743;SDS011;56303;52.160;-0.428;2023-03-11T15:20:02;5.33;;;2.40;;
20743;SDS011;56303;52.160;-0.428;2023-03-11T15:22:38;5.87;;;2.00;;
20743;SDS011;56303;52.160;-0.428;2023-03-11T15:25:16;5.50;;;2.00;;
20743;SDS011;56303;52.160;-0.428;2023-03-11T15:27:44;5.80;;;2.33;;
20743;SDS011;56303;52.160;-0.428;2023-03-11T15:30:30;5.30;;;2.40;;
20743;SDS011;56303;52.160;-0.428;2023-03-11T15:32:57;4.53;;;2.47;;
20743;SDS011;56303;52.160;-0.428;2023-03-11T15:35:24;5.23;;;2.27;;
20743;SDS011;56303;52.160;-0.428;2023-03-11T15:40:57;3.67;;;1.80;;
20743;SDS011;56303;52.160;-0.428;2023-03-11T15:43:33;4.23;;;2.23;;
20743;SDS011;56303;52.160;-0.428;2023-03-11T15:46:13;7.00;;;2.37;;
20743;SDS011;56303;52.160;-0.428;2023-03-11T15:48:41;4.40;;;2.53;;
20743;SDS011;56303;52.160;-0.428;2023-03-11T15:51:18;4.40;;;2.40;;
20743;SDS011;56303;52.160;-0.428;2023-03-11T15:53:45;4.13;;;2.03;;
20743;SDS011;56303;52.160;-0.428;2023-03-11T15:56:21;6.17;;;2.30;;
20743;SDS011;56303;52.160;-0.428;2023-03-11T15:58:50;5.27;;;2.50;;
20743;SDS011;56303;52.160;-0.428;2023-03-11T16:01:16;9.20;;;2.63;;
20743;SDS011;56303;52.160;-0.428;2023-03-11T16:03:48;6.43;;;2.13;;
20743;SDS011;56303;52.160;-0.428;2023-03-11T16:06:14;5.33;;;2.47;;
20743;SDS011;56303;52.160;-0.428;2023-03-11T16:08:41;3.80;;;2.20;;
20743;SDS011;56303;52.160;-0.428;2023-03-11T16:11:13;3.50;;;2.13;;
20743;SDS011;56303;52.160;-0.428;2023-03-11T16:13:40;5.53;;;2.37;;
20743;SDS011;56303;52.160;-0.428;2023-03-11T16:16:14;3.17;;;2.00;;
20743;SDS011;56303;52.160;-0.428;2023-03-11T16:18:42;6.93;;;2.50;;
20743;SDS011;56303;52.160;-0.428;2023-03-11T16:21:13;5.67;;;2.40;;
20743;SDS011;56303;52.160;-0.428;2023-03-11T16:23:43;5.77;;;2.53;;
20743;SDS011;56303;52.160;-0.428;2023-03-11T16:26:17;3.90;;;1.67;;
20743;SDS011;56303;52.160;-0.428;2023-03-11T16:28:44;2.80;;;1.73;;
20743;SDS011;56303;52.160;-0.428;2023-03-11T16:31:11;5.33;;;2.20;;
20743;SDS011;56303;52.160;-0.428;2023-03-11T16:33:38;3.53;;;1.60;;
20743;SDS011;56303;52.160;-0.428;2023-03-11T16:36:05;4.10;;;2.33;;
20743;SDS011;56303;52.160;-0.428;2023-03-11T16:38:36;3.23;;;1.93;;
20743;SDS011;56303;52.160;-0.428;2023-03-11T16:41:11;4.97;;;1.70;;
20743;SDS011;56303;52.160;-0.428;2023-03-11T16:43:38;4.47;;;2.00;;
20743;SDS011;56303;52.160;-0.428;2023-03-11T16:46:04;6.10;;;2.17;;